Time;durP1;ratioP1;P1;durP2;ratioP2;P2;SDS_P1;SDS_P2;PMS_P1;PMS_P2;Temp;Humidity;BMP_temperature;BMP_pressure;BME280_temperature;BME280_humidity;BME280_pressure;Samples;Min_cycle;Max_cycle;Signal;HPM_P1;HPM_P2
2022/04/24 00:01:27;;;;;;;3.42;2.08;;;;;;;12.41;49.38;100450.50;4993362;28;100991;-36
2022/04/24 00:03:53;;;;;;;3.88;2.03;;;;;;;12.37;49.42;100439.97;4995052;28;97998;-36
2022/04/24 00:06:19;;;;;;;3.80;2.40;;;;;;;12.35;49.36;100431.09;4993880;28;96631;-35
2022/04/24 00:08:44;;;;;;;5.07;2.38;;;;;;;12.32;49.50;100443.94;4994058;28;96945;-35
2022/04/24 00:11:10;;;;;;;3.78;2.20;;;;;;;12.28;49.94;100442.44;4993804;28;125470;-36
2022/04/24 00:13:41;;;;;;;4.03;2.50;;;;;;;12.22;49.71;100425.72;4994261;28;126444;-35
2022/04/24 00:16:07;;;;;;;3.97;2.53;;;;;;;12.23;49.87;100422.03;4995304;28;96648;-35
2022/04/24 00:18:32;;;;;;;5.00;2.65;;;;;;;12.22;49.97;100423.00;4995634;28;96801;-35
2022/04/24 00:20:58;;;;;;;4.43;2.40;;;;;;;12.23;49.99;100424.75;4994965;28;99676;-35
2022/04/24 00:23:23;;;;;;;4.57;2.42;;;;;;;12.29;49.76;100438.72;4995147;28;97807;-35
2022/04/24 00:25:48;;;;;;;4.20;1.98;;;;;;;12.23;50.15;100422.91;4994651;28;96552;-35
2022/04/24 00:28:14;;;;;;;3.92;2.38;;;;;;;12.24;49.90;100421.91;4995083;28;100269;-35
2022/04/24 00:30:39;;;;;;;4.88;2.50;;;;;;;12.20;50.19;100420.41;4994801;28;99151;-35
2022/04/24 00:33:04;;;;;;;4.18;2.05;;;;;;;12.15;50.49;100429.88;4993852;28;123883;-35
2022/04/24 00:35:31;;;;;;;5.22;2.60;;;;;;;12.07;49.71;100422.31;4995110;28;96486;-35
2022/04/24 00:37:56;;;;;;;3.75;2.22;;;;;;;12.10;50.38;100439.22;4995004;28;96845;-35
2022/04/24 00:40:22;;;;;;;4.30;2.30;;;;;;;12.12;50.14;100433.69;4994822;28;97459;-35
2022/04/24 00:42:47;;;;;;;3.70;2.00;;;;;;;12.12;50.68;100436.41;4994895;28;105771;-35
2022/04/24 00:45:12;;;;;;;4.72;2.50;;;;;;;12.07;50.45;100438.59;4994186;28;106029;-36
2022/04/24 00:47:37;;;;;;;4.82;2.08;;;;;;;12.02;50.60;100435.38;4994961;28;96769;-35
2022/04/24 00:50:05;;;;;;;5.22;2.30;;;;;;;11.96;50.35;100430.38;4994031;28;99695;-35
2022/04/24 00:52:30;;;;;;;3.42;2.35;;;;;;;11.93;50.41;100420.63;4993191;28;102060;-35
2022/04/24 00:54:56;;;;;;;3.90;2.40;;;;;;;11.93;50.48;100425.19;4994152;28;116105;-35
2022/04/24 00:57:21;;;;;;;4.88;2.38;;;;;;;11.95;50.77;100423.25;4994794;28;96801;-35
2022/04/24 00:59:47;;;;;;;3.35;2.00;;;;;;;11.89;50.52;100422.72;4994710;28;97910;-35
2022/04/24 01:02:12;;;;;;;3.70;2.28;;;;;;;11.81;50.87;100414.22;4994147;28;99356;-35
2022/04/24 01:04:38;;;;;;;3.30;2.05;;;;;;;11.80;50.84;100420.66;4994285;28;96740;-35
2022/04/24 01:07:04;;;;;;;3.65;2.00;;;;;;;11.69;51.50;100404.28;4993545;28;96827;-35
2022/04/24 01:09:33;;;;;;;4.32;2.28;;;;;;;11.66;51.25;100409.94;4992986;28;100706;-35
2022/04/24 01:11:58;;;;;;;3.15;2.05;;;;;;;11.66;51.11;100418.06;4992830;28;100937;-35
2022/04/24 01:14:26;;;;;;;6.10;2.70;;;;;;;11.65;51.36;100411.75;4994366;28;96564;-35
2022/04/24 01:16:52;;;;;;;4.03;2.30;;;;;;;11.64;50.99;100407.31;4993244;28;96784;-35
2022/04/24 01:19:18;;;;;;;3.38;2.28;;;;;;;11.68;51.25;100416.13;4992759;28;100960;-35
2022/04/24 01:21:46;;;;;;;3.45;2.40;;;;;;;11.71;51.16;100425.88;4993121;28;97353;-35
2022/04/24 01:24:13;;;;;;;4.43;2.47;;;;;;;11.61;51.09;100414.84;4993113;28;96530;-35
2022/04/24 01:26:39;;;;;;;4.40;2.08;;;;;;;11.65;51.17;100428.03;4993190;28;96917;-35
2022/04/24 01:29:05;;;;;;;3.92;2.20;;;;;;;11.62;51.45;100424.69;4994124;28;97992;-35
2022/04/24 01:31:31;;;;;;;4.15;2.00;;;;;;;11.51;51.54;100411.91;4993110;28;100889;-35
2022/04/24 01:33:57;;;;;;;3.20;2.17;;;;;;;11.61;51.96;100425.69;4992956;28;96625;-35
2022/04/24 01:36:22;;;;;;;4.63;2.08;;;;;;;11.58;51.64;100425.88;4994744;28;96789;-35
2022/04/24 01:38:48;;;;;;;3.97;2.22;;;;;;;11.56;52.10;100414.28;4993775;28;97502;-35
2022/04/24 01:41:14;;;;;;;4.38;2.38;;;;;;;11.59;52.63;100427.63;4994266;28;97293;-35
2022/04/24 01:43:39;;;;;;;5.53;2.13;;;;;;;11.56;51.71;100423.31;4994236;28;97166;-35
2022/04/24 01:46:06;;;;;;;3.03;2.00;;;;;;;11.58;51.98;100439.44;4994168;28;96779;-35
2022/04/24 01:48:33;;;;;;;9.18;2.88;;;;;;;11.46;51.92;100414.97;4992655;28;100504;-35
2022/04/24 01:50:59;;;;;;;4.25;2.60;;;;;;;11.52;52.24;100431.78;4992578;28;100852;-35
2022/04/24 01:53:25;;;;;;;3.13;2.15;;;;;;;11.45;51.90;100424.06;4992804;28;96671;-35
2022/04/24 01:55:50;;;;;;;4.32;2.72;;;;;;;11.39;52.13;100421.81;4993897;28;107172;-35
2022/04/24 01:58:15;;;;;;;4.75;2.72;;;;;;;11.36;52.35;100419.31;4993311;28;115444;-35
2022/04/24 02:00:41;;;;;;;6.15;3.17;;;;;;;11.41;52.47;100436.09;4993720;28;99294;-34
2022/04/24 02:03:06;;;;;;;7.10;2.75;;;;;;;11.29;52.69;100414.44;4993586;28;96553;-35
2022/04/24 02:05:31;;;;;;;4.70;2.78;;;;;;;11.32;52.77;100430.47;4993473;28;99906;-35
2022/04/24 02:07:56;;;;;;;6.18;2.95;;;;;;;11.30;53.17;100422.47;4992501;28;126799;-35
2022/04/24 02:10:22;;;;;;;4.63;2.55;;;;;;;11.34;52.89;100426.69;4993395;28;98001;-35
2022/04/24 02:12:47;;;;;;;4.93;2.92;;;;;;;11.35;52.97;100433.84;4993614;28;117163;-35
2022/04/24 02:15:12;;;;;;;8.50;3.55;;;;;;;11.30;53.05;100429.72;4996501;28;116486;-35
2022/04/24 02:17:38;;;;;;;5.13;3.00;;;;;;;11.23;53.65;100427.47;4996539;28;114336;-35
2022/04/24 02:20:03;;;;;;;6.35;3.20;;;;;;;11.22;53.54;100423.00;4997136;28;99036;-35
2022/04/24 02:22:33;;;;;;;3.55;2.38;;;;;;;11.22;54.09;100435.69;4996991;28;96518;-35
2022/04/24 02:24:59;;;;;;;5.35;2.75;;;;;;;11.17;54.51;100433.31;4997242;28;96775;-35
2022/04/24 02:27:24;;;;;;;7.22;3.65;;;;;;;11.16;54.13;100428.88;4996238;28;97770;-35
2022/04/24 02:29:50;;;;;;;5.30;3.17;;;;;;;11.16;53.99;100441.56;4996660;28;98792;-35
2022/04/24 02:32:15;;;;;;;5.15;3.05;;;;;;;11.11;54.54;100427.44;4996370;28;110980;-35
2022/04/24 02:34:40;;;;;;;5.78;3.13;;;;;;;11.09;54.68;100429.41;4996121;28;116954;-35
2022/04/24 02:37:05;;;;;;;6.78;3.33;;;;;;;11.08;54.72;100438.50;4995824;28;126607;-35
2022/04/24 02:39:31;;;;;;;6.28;3.40;;;;;;;11.03;55.47;100442.41;4996540;28;99388;-35
2022/04/24 02:41:56;;;;;;;7.85;3.08;;;;;;;11.02;55.17;100437.97;4996036;28;116585;-35
2022/04/24 02:44:21;;;;;;;5.38;2.97;;;;;;;10.95;55.89;100430.38;4997121;28;96771;-35
2022/04/24 02:46:47;;;;;;;6.43;2.75;;;;;;;10.97;56.20;100437.44;4994275;28;124585;-35
2022/04/24 02:49:12;;;;;;;6.20;2.78;;;;;;;10.93;55.30;100430.47;4995497;28;126834;-35
2022/04/24 02:51:38;;;;;;;5.68;3.20;;;;;;;11.00;55.22;100444.47;4996388;28;96591;-35
2022/04/24 02:54:03;;;;;;;7.07;3.17;;;;;;;10.90;56.79;100419.88;4996576;28;96824;-35
2022/04/24 02:56:29;;;;;;;5.30;3.15;;;;;;;10.93;56.15;100449.44;4996198;28;97788;-35
2022/04/24 02:58:54;;;;;;;6.07;3.55;;;;;;;10.92;56.43;100453.16;4996330;28;97349;-35
2022/04/24 03:01:21;;;;;;;7.18;3.80;;;;;;;10.84;56.28;100436.53;4996837;28;96513;-35
2022/04/24 03:03:47;;;;;;;8.30;3.65;;;;;;;10.82;57.07;100447.50;4995243;28;96900;-35
2022/04/24 03:06:12;;;;;;;6.85;3.95;;;;;;;10.67;57.58;100434.13;4995860;28;101930;-35
2022/04/24 03:08:38;;;;;;;5.93;2.78;;;;;;;10.70;57.90;100440.22;4996131;28;99242;-35
2022/04/24 03:11:03;;;;;;;6.47;3.67;;;;;;;10.69;57.14;100443.03;4994489;28;96587;-35
2022/04/24 03:13:28;;;;;;;6.40;3.50;;;;;;;10.69;57.56;100451.16;4995607;28;116427;-35
2022/04/24 03:15:54;;;;;;;9.18;3.75;;;;;;;10.64;58.37;100446.03;4994774;28;127405;-35
2022/04/24 03:18:19;;;;;;;6.30;3.67;;;;;;;10.69;57.22;100441.19;4996107;28;97835;-35
2022/04/24 03:20:44;;;;;;;7.78;3.83;;;;;;;10.73;58.66;100463.53;4995211;28;118947;-35
2022/04/24 03:23:10;;;;;;;4.47;2.55;;;;;;;10.66;58.01;100457.66;4996587;28;96816;-35
2022/04/24 03:25:35;;;;;;;8.98;4.00;;;;;;;10.55;58.85;100443.97;4994731;28;97991;-35
2022/04/24 03:28:00;;;;;;;7.18;3.65;;;;;;;10.48;58.25;100442.66;4995108;28;127268;-35
2022/04/24 03:30:26;;;;;;;7.88;4.30;;;;;;;10.49;58.65;100450.69;4996350;28;96653;-35
2022/04/24 03:32:51;;;;;;;5.65;2.92;;;;;;;10.50;59.43;100449.69;4996535;28;96849;-35
2022/04/24 03:35:16;;;;;;;4.82;3.50;;;;;;;10.47;58.73;100449.03;4995877;28;102853;-35
2022/04/24 03:37:43;;;;;;;9.65;4.13;;;;;;;10.44;59.93;100436.59;4995952;28;97803;-35
2022/04/24 03:40:08;;;;;;;7.20;3.97;;;;;;;10.47;61.04;100440.91;4995340;28;96639;-35
2022/04/24 03:42:35;;;;;;;7.28;3.60;;;;;;;10.41;59.61;100429.50;4995840;28;96894;-35
2022/04/24 03:45:01;;;;;;;8.30;4.18;;;;;;;10.36;60.02;100430.81;4994108;28;100937;-35
2022/04/24 03:47:27;;;;;;;6.10;3.47;;;;;;;10.39;58.85;100444.13;4994140;28;100784;-35
2022/04/24 03:49:53;;;;;;;6.93;3.67;;;;;;;10.29;58.57;100429.47;4995568;28;96618;-35
2022/04/24 03:52:18;;;;;;;5.00;3.20;;;;;;;10.25;59.08;100433.31;4995657;28;96729;-35
2022/04/24 03:54:44;;;;;;;6.03;3.30;;;;;;;10.28;59.42;100443.97;4995509;28;98206;-35
2022/04/24 03:57:09;;;;;;;7.13;3.75;;;;;;;10.27;59.92;100431.38;4995667;28;99270;-35
2022/04/24 03:59:35;;;;;;;6.72;3.65;;;;;;;10.27;59.86;100434.94;4995904;28;96438;-35
2022/04/24 04:02:00;;;;;;;4.63;2.83;;;;;;;10.20;59.97;100426.41;4995806;28;96746;-35
2022/04/24 04:04:26;;;;;;;6.60;3.22;;;;;;;10.20;59.81;100426.41;4994494;28;99564;-35
2022/04/24 04:06:52;;;;;;;4.75;2.90;;;;;;;10.24;60.03;100443.28;4994957;28;99286;-35
2022/04/24 04:09:17;;;;;;;5.15;2.97;;;;;;;10.08;60.52;100426.31;4995737;28;96763;-35
2022/04/24 04:11:42;;;;;;;11.30;3.85;;;;;;;10.06;59.72;100429.16;4993747;28;116601;-35
2022/04/24 04:14:08;;;;;;;6.43;3.70;;;;;;;10.08;59.71;100435.34;4994799;28;109997;-35
2022/04/24 04:16:34;;;;;;;7.18;3.40;;;;;;;9.99;60.05;100444.06;4993680;28;101234;-35
2022/04/24 04:18:59;;;;;;;5.47;2.88;;;;;;;9.95;60.37;100445.22;4977658;28;96681;-35
2022/04/24 04:21:25;;;;;;;5.90;3.40;;;;;;;10.03;60.21;100455.53;4994819;28;115391;-35
2022/04/24 04:23:50;;;;;;;5.53;3.00;;;;;;;10.04;59.88;100439.22;4994719;28;98870;-35
2022/04/24 04:26:17;;;;;;;5.32;2.85;;;;;;;10.04;60.43;100431.09;4994849;28;97802;-35
2022/04/24 04:28:44;;;;;;;3.78;2.10;;;;;;;10.12;59.80;100452.22;4993425;28;96804;-35
2022/04/24 04:31:10;;;;;;;4.90;3.13;;;;;;;10.10;60.15;100459.56;4993773;28;96835;-35
2022/04/24 04:33:35;;;;;;;7.68;3.45;;;;;;;10.06;59.90;100455.31;4993554;28;100838;-35
2022/04/24 04:36:01;;;;;;;7.35;3.40;;;;;;;9.97;59.90;100446.84;4994134;28;107510;-35
2022/04/24 04:38:26;;;;;;;6.05;3.15;;;;;;;9.96;60.65;100445.13;4994668;28;108527;-35
2022/04/24 04:40:51;;;;;;;5.00;2.78;;;;;;;9.96;59.82;100441.53;4995039;28;96966;-35
2022/04/24 04:43:16;;;;;;;4.28;2.42;;;;;;;9.95;60.51;100454.19;4993877;28;126872;-35
2022/04/24 04:45:42;;;;;;;11.23;4.07;;;;;;;9.98;60.27;100455.84;4994049;28;126248;-35
2022/04/24 04:48:07;;;;;;;6.50;3.13;;;;;;;9.93;60.07;100460.69;4994695;28;109044;-35
2022/04/24 04:50:33;;;;;;;4.88;3.05;;;;;;;9.93;61.28;100457.97;4994740;28;96804;-35
2022/04/24 04:52:58;;;;;;;5.10;3.13;;;;;;;10.00;60.44;100468.28;4994110;28;103784;-35
2022/04/24 04:55:23;;;;;;;7.50;3.35;;;;;;;9.96;61.05;100460.47;4993388;28;126884;-35
2022/04/24 04:57:49;;;;;;;4.88;2.42;;;;;;;9.86;60.59;100460.19;4994931;28;96517;-35
2022/04/24 05:00:14;;;;;;;5.38;2.88;;;;;;;9.92;59.87;100483.31;4994969;28;96795;-35
2022/04/24 05:02:40;;;;;;;5.93;2.88;;;;;;;9.86;60.21;100478.28;4994647;28;98103;-35
2022/04/24 05:05:07;;;;;;;4.10;2.63;;;;;;;9.83;60.40;100486.59;4992926;28;100905;-35
2022/04/24 05:07:33;;;;;;;4.25;2.47;;;;;;;9.77;60.73;100464.41;4993215;28;96864;-35
2022/04/24 05:09:59;;;;;;;4.28;2.40;;;;;;;9.88;60.53;100473.63;4994583;28;96839;-35
2022/04/24 05:12:28;;;;;;;3.97;2.40;;;;;;;9.85;60.54;100471.16;4993813;28;120991;-35
2022/04/24 05:14:59;;;;;;;6.30;3.22;;;;;;;9.88;61.25;100481.75;4994172;28;98972;-35
2022/04/24 05:17:27;;;;;;;5.13;2.67;;;;;;;9.93;60.56;100485.03;4992893;28;96599;-35
2022/04/24 05:19:52;;;;;;;5.32;2.58;;;;;;;9.85;61.30;100474.72;4994519;28;96786;-35
2022/04/24 05:22:17;;;;;;;5.80;3.15;;;;;;;9.96;60.42;100487.53;4994784;28;97369;-35
2022/04/24 05:24:42;;;;;;;6.97;2.80;;;;;;;9.89;60.51;100475.38;4991819;28;128037;-35
2022/04/24 05:27:08;;;;;;;4.78;2.55;;;;;;;9.96;60.96;100493.84;4993711;28;116989;-35
2022/04/24 05:29:33;;;;;;;5.78;2.92;;;;;;;9.98;61.11;100494.56;4993645;28;117345;-35
2022/04/24 05:31:58;;;;;;;7.22;2.08;;;;;;;9.97;60.36;100492.84;4993433;28;113046;-35
2022/04/24 05:34:23;;;;;;;3.08;1.85;;;;;;;10.06;61.70;100506.75;4993459;28;126398;-35
2022/04/24 05:36:49;;;;;;;4.47;2.60;;;;;;;10.10;59.74;100506.44;4994563;28;96454;-35
2022/04/24 05:39:14;;;;;;;4.80;2.60;;;;;;;10.12;59.76;100499.09;4993613;28;104332;-35
2022/04/24 05:41:39;;;;;;;5.68;2.33;;;;;;;10.11;60.14;100494.66;4992886;28;121341;-35
2022/04/24 05:44:04;;;;;;;4.30;2.38;;;;;;;10.18;60.39;100514.09;4993244;28;126686;-35
2022/04/24 05:46:30;;;;;;;4.80;2.30;;;;;;;10.24;60.35;100507.38;4993369;28;112888;-35
2022/04/24 05:48:56;;;;;;;6.88;2.75;;;;;;;10.30;59.95;100507.91;4996412;28;96804;-35
2022/04/24 05:51:21;;;;;;;2.67;1.85;;;;;;;10.28;59.79;100503.53;4995883;28;100445;-35
2022/04/24 05:53:47;;;;;;;5.65;2.63;;;;;;;10.31;60.08;100503.34;4997158;28;97407;-35
2022/04/24 05:56:12;;;;;;;4.60;2.40;;;;;;;10.38;59.63;100510.09;4997815;28;96759;-35
2022/04/24 05:58:37;;;;;;;5.45;2.97;;;;;;;10.47;59.46;100514.88;4996521;28;97197;-35
2022/04/24 06:01:03;;;;;;;3.92;2.45;;;;;;;10.53;59.07;100517.19;4997364;28;97294;-35
2022/04/24 06:03:28;;;;;;;3.72;2.20;;;;;;;10.58;59.39;100525.88;4996997;28;105851;-35
2022/04/24 06:05:53;;;;;;;5.65;3.00;;;;;;;10.56;59.10;100511.56;4995892;28;117967;-35
2022/04/24 06:08:19;;;;;;;4.63;2.47;;;;;;;10.64;59.17;100516.47;4996855;28;96860;-35
2022/04/24 06:10:44;;;;;;;7.75;2.50;;;;;;;10.72;59.55;100514.09;4996397;28;99413;-35
2022/04/24 06:13:09;;;;;;;4.95;2.50;;;;;;;10.87;59.14;100533.00;4996118;28;126761;-35
2022/04/24 06:15:34;;;;;;;4.72;2.92;;;;;;;10.82;58.53;100508.91;4996368;28;116805;-35
2022/04/24 06:18:03;;;;;;;4.45;2.33;;;;;;;10.99;58.60;100534.91;4997083;28;96520;-35
2022/04/24 06:20:29;;;;;;;4.03;2.10;;;;;;;11.05;58.74;100526.31;4995964;28;127139;-35
2022/04/24 06:22:59;;;;;;;5.25;3.03;;;;;;;11.23;57.87;100535.03;4997073;28;99152;-35
2022/04/24 06:25:30;;;;;;;7.30;2.80;;;;;;;11.32;57.94;100529.00;4995735;28;96843;-35
2022/04/24 06:27:56;;;;;;;5.38;2.63;;;;;;;11.31;57.59;100513.69;4996942;28;96817;-35
2022/04/24 06:30:24;;;;;;;4.80;2.70;;;;;;;11.42;57.17;100535.50;4993973;28;129673;-35
2022/04/24 06:32:49;;;;;;;2.95;2.00;;;;;;;11.54;57.09;100535.63;4995417;28;100901;-35
2022/04/24 06:35:16;;;;;;;5.00;2.60;;;;;;;11.73;56.69;100543.28;4997180;28;96600;-35
2022/04/24 06:37:44;;;;;;;4.65;2.80;;;;;;;11.72;57.03;100533.41;4995603;28;96862;-35
2022/04/24 06:40:11;;;;;;;5.68;2.90;;;;;;;11.87;56.77;100533.22;4995143;28;101064;-35
2022/04/24 06:42:55;;;;;;;4.40;1.92;;;;;;;12.02;56.20;100546.66;4995075;28;100822;-35
2022/04/24 06:45:31;;;;;;;5.82;2.85;;;;;;;12.05;56.15;100524.72;4995495;28;96565;-35
2022/04/24 06:48:16;;;;;;;6.85;2.80;;;;;;;12.19;55.89;100538.16;4995700;28;96814;-35
2022/04/24 06:50:45;;;;;;;4.03;2.63;;;;;;;12.24;55.57;100554.97;4996094;28;99492;-35
2022/04/24 06:53:17;;;;;;;5.25;2.47;;;;;;;12.42;55.63;100543.72;4995010;28;100733;-34
2022/04/24 06:55:44;;;;;;;4.65;2.85;;;;;;;12.46;55.06;100548.81;4996133;28;96460;-35
2022/04/24 06:58:11;;;;;;;4.32;2.38;;;;;;;12.54;54.56;100545.56;4995003;28;96615;-35
2022/04/24 07:00:39;;;;;;;4.38;2.85;;;;;;;12.65;54.57;100537.44;4994767;28;101447;-35
2022/04/24 07:03:24;;;;;;;7.90;2.25;;;;;;;12.82;54.24;100548.88;4996153;28;98776;-35
2022/04/24 07:05:53;;;;;;;4.90;2.17;;;;;;;13.03;53.94;100549.97;4996310;28;96940;-35
2022/04/24 07:08:19;;;;;;;5.10;2.80;;;;;;;13.06;53.69;100552.47;4995014;28;96949;-35
2022/04/24 07:10:44;;;;;;;3.85;2.25;;;;;;;13.08;53.49;100545.03;4994152;28;100744;-35
2022/04/24 07:13:10;;;;;;;4.00;2.35;;;;;;;13.29;53.52;100558.00;4996718;28;97801;-35
2022/04/24 07:15:38;;;;;;;6.70;3.13;;;;;;;13.32;53.13;100546.88;4996126;28;99915;-35
2022/04/24 07:18:05;;;;;;;8.75;2.80;;;;;;;13.54;52.74;100563.28;4994945;28;96797;-35
2022/04/24 07:20:30;;;;;;;6.65;2.60;;;;;;;13.65;52.47;100558.81;4977555;28;101001;-35
2022/04/24 07:22:58;;;;;;;4.80;2.40;;;;;;;13.71;52.12;100566.53;4996209;28;97841;-35
2022/04/24 07:25:28;;;;;;;4.13;2.40;;;;;;;13.75;52.38;100554.38;4978244;28;96755;-35
2022/04/24 07:27:54;;;;;;;3.67;2.13;;;;;;;13.89;51.85;100556.84;4994872;28;96892;-35
2022/04/24 07:30:20;;;;;;;5.68;2.95;;;;;;;13.99;51.84;100557.88;4994504;28;101341;-35
2022/04/24 07:32:51;;;;;;;3.22;1.88;;;;;;;14.17;51.55;100557.38;4994421;28;100767;-35
2022/04/24 07:35:22;;;;;;;4.43;2.55;;;;;;;14.26;51.10;100559.34;4994663;28;96687;-35
2022/04/24 07:37:48;;;;;;;5.25;3.03;;;;;;;14.32;50.68;100567.00;4994863;28;96657;-35
2022/04/24 07:40:15;;;;;;;4.88;2.13;;;;;;;14.45;50.83;100559.56;4995521;28;98949;-35
2022/04/24 07:42:48;;;;;;;4.85;2.78;;;;;;;14.47;50.26;100561.28;4994213;28;100825;-35
2022/04/24 07:45:20;;;;;;;6.25;2.67;;;;;;;14.50;50.08;100567.34;4995216;28;96573;-35
2022/04/24 07:47:46;;;;;;;3.38;2.22;;;;;;;14.65;50.01;100566.09;4994443;28;96878;-35
2022/04/24 07:50:13;;;;;;;4.43;2.80;;;;;;;14.79;49.39;100566.81;4994033;28;100848;-35
2022/04/24 07:52:38;;;;;;;5.78;2.88;;;;;;;14.70;48.85;100565.72;4994137;28;97985;-35
2022/04/24 07:55:04;;;;;;;3.63;2.28;;;;;;;14.86;49.04;100568.03;4995561;28;96561;-35
2022/04/24 07:57:29;;;;;;;4.95;2.72;;;;;;;14.96;49.03;100563.53;4994465;28;96925;-35
2022/04/24 07:59:54;;;;;;;4.63;2.15;;;;;;;15.25;48.06;100561.06;4994478;28;127113;-35
2022/04/24 08:02:20;;;;;;;4.95;2.58;;;;;;;15.45;48.60;100563.94;4995056;28;126481;-35
2022/04/24 08:04:45;;;;;;;4.72;2.47;;;;;;;15.49;48.37;100570.84;4995240;28;96443;-36
2022/04/24 08:07:10;;;;;;;6.10;2.42;;;;;;;15.52;48.31;100554.22;4995441;28;96898;-35
2022/04/24 08:09:36;;;;;;;5.15;2.60;;;;;;;15.70;47.63;100573.59;4994229;28;126998;-35
2022/04/24 08:12:01;;;;;;;4.78;2.72;;;;;;;15.82;48.07;100571.66;4993204;28;126812;-35
2022/04/24 08:14:26;;;;;;;6.00;2.92;;;;;;;15.93;47.12;100571.59;4995718;28;96706;-35
2022/04/24 08:16:51;;;;;;;4.80;2.85;;;;;;;15.95;47.07;100568.72;4994557;28;116968;-35
2022/04/24 08:19:17;;;;;;;6.75;3.17;;;;;;;15.95;47.47;100571.47;4994487;28;120960;-35
2022/04/24 08:21:42;;;;;;;5.60;2.60;;;;;;;16.09;47.21;100582.03;4994980;28;99063;-35
2022/04/24 08:24:07;;;;;;;8.57;2.72;;;;;;;16.24;47.17;100586.09;4994374;28;117214;-35
2022/04/24 08:26:32;;;;;;;3.95;2.63;;;;;;;16.44;46.65;100589.75;4994500;28;117358;-35
2022/04/24 08:28:58;;;;;;;3.90;2.40;;;;;;;16.25;46.55;100576.88;4993912;28;126605;-35
2022/04/24 08:31:23;;;;;;;5.72;2.85;;;;;;;16.31;46.42;100597.34;4993152;28;117992;-35
2022/04/24 08:33:50;;;;;;;4.10;2.42;;;;;;;16.46;45.96;100581.44;4994069;28;108993;-35
2022/04/24 08:36:15;;;;;;;5.28;2.65;;;;;;;16.69;46.05;100587.56;4993635;28;96938;-35
2022/04/24 08:38:40;;;;;;;4.15;2.58;;;;;;;16.86;45.63;100589.63;4994198;28;126941;-35
2022/04/24 08:41:08;;;;;;;6.05;3.35;;;;;;;16.99;45.41;100600.28;4992713;28;121147;-35
2022/04/24 08:43:34;;;;;;;5.75;2.83;;;;;;;16.96;45.38;100597.84;4995124;28;96609;-35
2022/04/24 08:46:02;;;;;;;4.35;2.75;;;;;;;16.95;45.33;100599.72;4993650;28;96833;-35
2022/04/24 08:48:28;;;;;;;4.07;2.45;;;;;;;17.03;45.29;100592.66;4994504;28;99332;-35
2022/04/24 08:50:55;;;;;;;4.43;2.53;;;;;;;17.02;44.84;100589.06;4995021;28;97798;-35
2022/04/24 08:53:21;;;;;;;6.40;2.97;;;;;;;17.17;44.76;100593.09;4993570;28;96585;-35
2022/04/24 08:55:46;;;;;;;4.13;2.30;;;;;;;17.10;44.77;100602.03;4994860;28;96882;-35
2022/04/24 08:58:12;;;;;;;6.22;3.13;;;;;;;17.25;44.48;100597.84;4994002;28;99651;-35
2022/04/24 09:00:38;;;;;;;6.78;3.08;;;;;;;17.35;44.43;100612.44;4993681;28;126279;-35
2022/04/24 09:03:07;;;;;;;4.47;2.80;;;;;;;17.47;44.15;100604.94;4995068;28;96929;-35
2022/04/24 09:05:32;;;;;;;6.03;3.00;;;;;;;17.61;44.15;100615.44;4994295;28;96844;-35
2022/04/24 09:08:24;;;;;;;4.72;2.63;;;;;;;17.67;43.57;100604.91;4994404;28;97906;-35
2022/04/24 09:10:57;;;;;;;4.00;2.45;;;;;;;17.78;43.16;100608.34;4993477;28;99415;-35
2022/04/24 09:13:28;;;;;;;5.45;2.97;;;;;;;17.78;43.90;100602.88;4993293;28;96788;-35
2022/04/24 09:15:55;;;;;;;5.50;3.13;;;;;;;17.94;42.83;100615.13;4993542;28;96940;-35
2022/04/24 09:18:20;;;;;;;4.97;2.70;;;;;;;17.88;42.52;100597.41;4992786;28;100960;-35
2022/04/24 09:20:54;;;;;;;5.82;2.88;;;;;;;18.09;41.38;100613.66;4994087;28;99469;-35
2022/04/24 09:23:20;;;;;;;7.28;2.70;;;;;;;18.11;42.84;100610.75;4995588;28;96576;-35
2022/04/24 09:25:46;;;;;;;5.32;2.53;;;;;;;18.13;42.17;100604.09;4996552;28;96845;-35
2022/04/24 09:28:11;;;;;;;4.95;2.40;;;;;;;18.44;41.83;100614.78;4997738;28;97467;-35
2022/04/24 09:30:36;;;;;;;6.63;3.08;;;;;;;18.62;41.78;100612.97;4997051;28;114104;-35
2022/04/24 09:33:02;;;;;;;6.10;3.25;;;;;;;18.57;41.00;100608.97;4998086;28;96698;-35
2022/04/24 09:35:32;;;;;;;4.75;2.88;;;;;;;18.71;41.24;100621.28;4997917;28;96801;-35
2022/04/24 09:38:14;;;;;;;4.55;2.55;;;;;;;18.84;40.86;100614.47;4979706;28;101034;-35
2022/04/24 09:40:43;;;;;;;4.57;2.58;;;;;;;18.99;40.41;100616.69;4997532;28;98879;-35
2022/04/24 09:43:09;;;;;;;5.20;2.97;;;;;;;19.11;41.05;100618.19;4996395;28;96584;-35
2022/04/24 09:45:35;;;;;;;8.10;3.33;;;;;;;19.14;40.37;100611.50;4996237;28;96797;-35
2022/04/24 09:48:00;;;;;;;5.57;3.10;;;;;;;19.06;40.56;100621.41;4997178;28;97547;-35
2022/04/24 09:50:29;;;;;;;7.18;3.17;;;;;;;19.06;40.64;100623.28;4997550;28;97792;-35
2022/04/24 09:52:57;;;;;;;5.07;2.83;;;;;;;19.30;40.99;100625.41;4997640;28;96806;-35
2022/04/24 09:55:25;;;;;;;3.72;2.42;;;;;;;19.41;39.00;100607.84;4995948;28;96935;-35
2022/04/24 09:57:53;;;;;;;6.30;2.83;;;;;;;19.41;39.25;100614.19;4995970;28;101044;-35
2022/04/24 10:00:19;;;;;;;5.30;3.30;;;;;;;19.64;40.37;100621.94;4995789;28;100754;-35
2022/04/24 10:02:45;;;;;;;5.97;2.90;;;;;;;19.58;39.71;100617.09;4997936;28;96772;-35
2022/04/24 10:05:12;;;;;;;4.82;2.78;;;;;;;19.72;39.99;100617.41;4997766;28;96666;-35
2022/04/24 10:07:38;;;;;;;5.38;3.25;;;;;;;19.68;39.91;100615.16;4995429;28;100949;-35
2022/04/24 10:10:04;;;;;;;7.10;4.07;;;;;;;19.60;39.02;100604.06;4995239;28;100801;-35
2022/04/24 10:12:30;;;;;;;6.28;3.38;;;;;;;19.58;39.15;100614.34;4997107;28;96644;-35
2022/04/24 10:15:00;;;;;;;4.47;2.63;;;;;;;19.72;39.38;100611.91;4995918;28;96879;-35
2022/04/24 10:18:02;;;;;;;8.13;3.85;;;;;;;20.02;38.55;100628.09;4995781;28;99204;-35
2022/04/24 10:20:57;;;;;;;4.22;2.55;;;;;;;20.15;38.63;100623.91;4996865;28;97489;-35
2022/04/24 10:23:33;;;;;;;6.40;3.03;;;;;;;20.19;38.25;100624.47;4995916;28;105459;-35
2022/04/24 10:25:59;;;;;;;5.05;3.30;;;;;;;20.21;38.74;100616.88;4997301;28;96891;-35
2022/04/24 10:28:35;;;;;;;5.13;2.63;;;;;;;20.24;37.77;100624.81;4997191;28;97577;-34
2022/04/24 10:31:03;;;;;;;6.07;2.67;;;;;;;20.24;37.92;100624.81;4997372;28;97371;-35
2022/04/24 10:33:32;;;;;;;5.40;2.70;;;;;;;20.22;37.52;100626.00;4996333;28;96551;-35
2022/04/24 10:36:02;;;;;;;5.28;2.83;;;;;;;20.15;37.92;100620.28;4995759;28;96913;-35
2022/04/24 10:38:29;;;;;;;5.90;2.90;;;;;;;20.26;38.14;100625.53;4994870;28;100920;-35
2022/04/24 10:41:06;;;;;;;6.40;3.13;;;;;;;20.22;37.06;100620.50;4995220;28;100953;-35
2022/04/24 10:43:58;;;;;;;6.60;3.40;;;;;;;20.26;37.63;100628.28;4995934;28;96538;-35
2022/04/24 10:46:33;;;;;;;;;;;;;;;20.38;36.63;100628.88;4997162;28;96769;-35
2022/04/24 10:49:13;;;;;;;5.45;2.60;;;;;;;20.31;36.75;100614.91;4995263;28;100830;-35
2022/04/24 10:51:41;;;;;;;8.32;3.08;;;;;;;20.58;36.69;100624.00;4994876;28;100695;-34
2022/04/24 10:54:12;;;;;;;6.15;2.85;;;;;;;20.67;36.47;100619.41;4995481;28;96764;-35
2022/04/24 10:56:38;;;;;;;6.20;2.85;;;;;;;20.91;37.54;100621.38;4997000;28;96795;-35
2022/04/24 10:59:18;;;;;;;5.13;3.10;;;;;;;21.04;37.09;100618.13;4995066;28;100924;-35
2022/04/24 11:01:49;;;;;;;8.65;3.05;;;;;;;20.98;37.57;100604.00;4996541;28;97848;-35
2022/04/24 11:04:15;;;;;;;4.20;2.63;;;;;;;21.19;37.28;100622.81;4995825;28;97717;-35
2022/04/24 11:06:57;;;;;;;5.38;3.03;;;;;;;21.34;36.75;100611.13;4994968;28;96898;-35
2022/04/24 11:09:24;;;;;;;5.88;3.22;;;;;;;21.38;37.35;100609.72;4994713;28;100917;-34
2022/04/24 11:12:03;;;;;;;4.68;2.83;;;;;;;21.35;36.36;100615.59;4994684;28;100676;-35
2022/04/24 11:14:44;;;;;;;5.15;2.70;;;;;;;21.19;35.70;100616.47;4995030;28;96622;-35
2022/04/24 11:17:10;;;;;;;9.27;3.80;;;;;;;20.95;37.17;100606.22;4996492;28;96863;-35
2022/04/24 11:19:39;;;;;;;6.90;3.60;;;;;;;21.11;37.54;100624.69;4996245;28;97983;-35
2022/04/24 11:22:10;;;;;;;4.60;2.85;;;;;;;21.30;36.15;100618.00;4996476;28;97911;-35
2022/04/24 11:24:37;;;;;;;5.80;2.88;;;;;;;21.49;36.99;100619.63;4994917;28;96611;-35